Time;durP1;ratioP1;P1;durP2;ratioP2;P2;SDS_P1;SDS_P2;PMS_P1;PMS_P2;Temp;Humidity;BMP_temperature;BMP_pressure;BME280_temperature;BME280_humidity;BME280_pressure;Samples;Min_cycle;Max_cycle;Signal;HPM_P1;HPM_P2
2021/12/18 00:02:04;;;;;;;6.00;2.10;;;;;;;6.41;100.00;103118.11;104362;1325;71961;-79
2021/12/18 00:04:31;;;;;;;3.70;1.60;;;;;;;6.42;100.00;103122.48;104602;1328;62350;-79
2021/12/18 00:07:01;;;;;;;3.50;1.50;;;;;;;6.43;100.00;103123.48;104140;1328;61626;-79
2021/12/18 00:09:30;;;;;;;4.00;1.80;;;;;;;6.42;100.00;103127.02;103817;1325;75160;-79
2021/12/18 00:11:57;;;;;;;4.30;1.70;;;;;;;6.43;100.00;103131.55;103470;1332;71149;-80
2021/12/18 00:14:24;;;;;;;3.90;1.40;;;;;;;6.43;100.00;103134.71;104119;1328;73960;-79
2021/12/18 00:16:51;;;;;;;6.80;2.40;;;;;;;6.44;100.00;103137.11;104620;1329;62497;-79
2021/12/18 00:19:24;;;;;;;5.40;1.80;;;;;;;6.46;100.00;103136.50;104523;1324;60614;-80
2021/12/18 00:21:51;;;;;;;3.10;1.50;;;;;;;6.47;100.00;103133.80;103741;1329;74308;-81
2021/12/18 00:24:19;;;;;;;3.80;1.90;;;;;;;6.48;100.00;103132.52;103795;1328;71580;-81
2021/12/18 00:26:46;;;;;;;5.00;1.90;;;;;;;6.48;100.00;103130.89;104336;1323;74585;-80
2021/12/18 00:29:13;;;;;;;4.00;2.00;;;;;;;6.49;100.00;103128.58;104545;1324;62267;-80
2021/12/18 00:31:40;;;;;;;4.60;2.30;;;;;;;6.50;100.00;103128.84;104230;1328;62103;-80
2021/12/18 00:34:06;;;;;;;5.00;2.70;;;;;;;6.52;100.00;103126.11;104565;1325;75701;-80
2021/12/18 00:36:33;;;;;;;6.70;2.70;;;;;;;6.53;100.00;103123.61;104484;1328;58379;-80
2021/12/18 00:38:59;;;;;;;5.00;2.00;;;;;;;6.54;100.00;103123.91;104524;1328;58345;-80
2021/12/18 00:41:47;;;;;;;4.40;2.10;;;;;;;6.54;100.00;103124.61;104392;1313;58864;-79
2021/12/18 00:44:04;;;;;;;7.30;2.50;;;;;;;6.53;100.00;103124.11;104224;1311;59230;-80
2021/12/18 00:46:34;;;;;;;3.80;1.90;;;;;;;6.53;100.00;103125.89;104190;1327;74163;-80
2021/12/18 00:49:01;;;;;;;5.60;2.50;;;;;;;6.52;100.00;103127.69;104045;1327;71652;-80
2021/12/18 00:51:28;;;;;;;5.90;2.70;;;;;;;6.51;100.00;103122.67;104025;1325;74035;-80
2021/12/18 00:53:54;;;;;;;4.40;2.30;;;;;;;6.51;100.00;103127.73;104319;1332;58380;-80
2021/12/18 00:56:22;;;;;;;10.40;2.50;;;;;;;6.51;100.00;103131.09;103788;1330;60330;-80
2021/12/18 00:58:50;;;;;;;5.70;2.20;;;;;;;6.51;100.00;103132.70;104255;1332;75181;-80
2021/12/18 01:01:19;;;;;;;5.60;2.30;;;;;;;6.50;100.00;103131.48;104320;1325;70524;-81
2021/12/18 01:03:48;;;;;;;4.50;1.50;;;;;;;6.51;100.00;103128.30;104261;1331;73947;-80
2021/12/18 01:06:16;;;;;;;4.40;1.80;;;;;;;6.50;100.00;103128.86;103988;1326;61034;-80
2021/12/18 01:08:43;;;;;;;3.80;1.80;;;;;;;6.50;100.00;103127.27;105135;1312;59955;-80
2021/12/18 01:27:06;;;;;;;6.50;2.40;;;;;;;6.45;100.00;103128.09;104661;1312;66814;-80
2021/12/18 01:29:32;;;;;;;4.50;1.80;;;;;;;6.46;100.00;103134.38;104357;1330;74246;-81
2021/12/18 01:31:59;;;;;;;5.00;2.40;;;;;;;6.47;100.00;103136.40;104307;1327;62343;-81
2021/12/18 01:34:25;;;;;;;6.20;2.60;;;;;;;6.48;100.00;103136.54;104381;1333;58326;-80
2021/12/18 01:36:52;;;;;;;10.90;3.40;;;;;;;6.49;100.00;103140.14;103688;1330;59082;-80
2021/12/18 01:55:58;;;;;;;3.00;1.20;;;;;;;6.35;100.00;103141.33;103886;1318;71395;-80
2021/12/18 01:58:25;;;;;;;5.00;1.60;;;;;;;6.31;100.00;103140.67;103414;1321;164178;-81
2021/12/18 02:00:54;;;;;;;3.80;1.60;;;;;;;6.30;100.00;103137.94;103747;1336;61475;-81
2021/12/18 02:03:24;;;;;;;3.00;1.40;;;;;;;6.28;100.00;103138.17;103724;1338;59484;-82
2021/12/18 02:05:52;;;;;;;2.40;1.10;;;;;;;6.27;100.00;103137.02;103725;1331;72499;-82
2021/12/18 02:08:23;;;;;;;4.50;1.40;;;;;;;6.26;100.00;103136.90;103671;1334;72415;-81
2021/12/18 02:10:57;;;;;;;2.40;1.10;;;;;;;6.26;100.00;103137.95;103556;1335;74114;-83
2021/12/18 02:21:31;;;;;;;2.00;1.10;;;;;;;6.27;100.00;103127.70;104863;1322;71645;-80
2021/12/18 02:23:58;;;;;;;4.10;1.30;;;;;;;6.27;100.00;103125.06;104855;1321;73026;-81
2021/12/18 02:42:55;;;;;;;3.70;1.60;;;;;;;6.27;100.00;103106.44;103992;1311;59062;-79
2021/12/18 02:45:28;;;;;;;4.60;2.10;;;;;;;6.26;100.00;103106.16;104910;1312;73314;-78
2021/12/18 02:47:54;;;;;;;4.10;1.50;;;;;;;6.23;100.00;103098.05;104863;1314;74553;-80
2021/12/18 02:50:21;;;;;;;3.90;1.80;;;;;;;6.24;100.00;103097.86;104735;1325;72449;-79
2021/12/18 02:52:48;;;;;;;3.70;1.30;;;;;;;6.22;100.00;103096.95;104863;1321;63570;-79
2021/12/18 02:55:17;;;;;;;4.30;1.70;;;;;;;6.19;100.00;103098.50;104867;1324;60860;-80
2021/12/18 02:57:44;;;;;;;3.90;1.90;;;;;;;6.18;100.00;103097.99;104692;1328;73282;-80
2021/12/18 03:00:11;;;;;;;3.30;1.70;;;;;;;6.17;100.00;103104.23;104844;1322;57567;-79
2021/12/18 03:02:43;;;;;;;7.40;2.00;;;;;;;6.16;100.00;103106.59;103829;1323;72916;-79
2021/12/18 03:05:18;;;;;;;37.50;3.90;;;;;;;6.15;100.00;103108.05;104482;1325;62149;-79
2021/12/18 03:07:46;;;;;;;15.10;2.30;;;;;;;6.13;100.00;103106.33;104666;1325;61641;-79
2021/12/18 03:21:37;;;;;;;4.00;1.40;;;;;;;6.07;100.00;103095.13;104832;1322;60696;-79
2021/12/18 03:23:40;;;;;;;5.20;1.50;;;;;;;6.06;100.00;103091.83;104695;1311;74693;-81
2021/12/18 03:26:04;;;;;;;3.30;1.10;;;;;;;6.05;100.00;103093.10;103812;1311;66598;-80
2021/12/18 03:28:31;;;;;;;4.10;1.60;;;;;;;6.05;100.00;103082.58;104900;1326;72977;-80
2021/12/18 03:30:58;;;;;;;2.70;1.20;;;;;;;6.04;100.00;103079.44;104738;1322;62220;-81
2021/12/18 03:33:26;;;;;;;3.30;1.60;;;;;;;6.05;100.00;103080.98;104815;1322;60565;-80
2021/12/18 03:35:53;;;;;;;3.70;1.60;;;;;;;6.05;100.00;103075.91;104129;1322;74318;-80
2021/12/18 03:38:22;;;;;;;4.40;2.30;;;;;;;6.05;100.00;103073.59;103824;1323;72155;-80
2021/12/18 03:40:49;;;;;;;5.30;2.00;;;;;;;6.04;100.00;103072.10;104807;1326;74138;-80
2021/12/18 03:43:16;;;;;;;2.20;1.20;;;;;;;6.03;100.00;103073.92;104816;1323;57465;-80
2021/12/18 03:45:42;;;;;;;5.30;1.50;;;;;;;6.03;100.00;103075.13;104596;1328;60787;-81
2021/12/18 03:48:09;;;;;;;4.50;1.20;;;;;;;6.02;100.00;103083.63;104238;1325;58165;-81
2021/12/18 03:50:35;;;;;;;3.30;1.20;;;;;;;6.00;100.00;103083.02;104538;1322;71185;-80
2021/12/18 03:53:02;;;;;;;4.70;1.60;;;;;;;6.00;100.00;103083.56;104400;1325;73860;-81
2021/12/18 03:55:30;;;;;;;3.70;1.40;;;;;;;5.99;100.00;103079.90;104551;1321;63026;-80
2021/12/18 03:57:56;;;;;;;5.10;1.90;;;;;;;5.97;100.00;103082.69;104823;1322;57479;-81
2021/12/18 04:00:23;;;;;;;5.40;1.80;;;;;;;5.95;100.00;103081.73;104812;1322;57609;-81
2021/12/18 04:02:50;;;;;;;3.70;1.50;;;;;;;5.93;100.00;103082.16;104834;1322;72526;-81
2021/12/18 04:05:17;;;;;;;2.90;0.90;;;;;;;5.91;100.00;103084.91;104608;1329;74057;-81
2021/12/18 04:07:46;;;;;;;2.30;1.00;;;;;;;5.86;100.00;103083.06;104130;1328;62093;-81
2021/12/18 04:10:15;;;;;;;5.30;1.30;;;;;;;5.81;100.00;103089.14;104794;1315;60664;-80
2021/12/18 04:12:41;;;;;;;2.10;0.70;;;;;;;5.78;100.00;103083.16;104178;1328;73382;-80
2021/12/18 04:15:09;;;;;;;2.60;0.80;;;;;;;5.73;100.00;103083.62;103618;1329;71998;-79
2021/12/18 04:17:35;;;;;;;1.60;0.60;;;;;;;5.68;100.00;103085.81;104631;1322;73241;-79
2021/12/18 04:20:03;;;;;;;4.30;1.00;;;;;;;5.63;100.00;103085.41;104789;1322;63134;-79
2021/12/18 04:22:30;;;;;;;4.80;1.10;;;;;;;5.58;100.00;103077.95;104551;1321;60810;-80
2021/12/18 04:24:56;;;;;;;2.80;0.70;;;;;;;5.56;100.00;103079.12;104836;1322;72299;-81
2021/12/18 04:27:23;;;;;;;1.90;0.70;;;;;;;5.54;100.00;103078.19;104842;1322;71452;-81
2021/12/18 04:29:49;;;;;;;3.00;1.00;;;;;;;5.51;100.00;103082.90;104707;1322;57805;-80
2021/12/18 04:32:16;;;;;;;1.80;0.70;;;;;;;5.48;100.00;103082.17;104869;1322;57503;-81
2021/12/18 04:34:43;;;;;;;1.90;0.70;;;;;;;5.46;100.00;103084.89;104161;1322;60448;-81
2021/12/18 04:37:09;;;;;;;3.50;1.20;;;;;;;5.45;100.00;103080.91;104960;1322;73318;-81
2021/12/18 04:39:36;;;;;;;1.70;0.90;;;;;;;5.45;100.00;103077.27;104850;1315;70683;-81
2021/12/18 04:42:03;;;;;;;1.90;0.70;;;;;;;5.43;100.00;103072.96;104697;1322;74075;-81
2021/12/18 04:44:29;;;;;;;3.50;1.00;;;;;;;5.40;100.00;103070.83;104955;1325;62540;-80
2021/12/18 04:46:56;;;;;;;1.70;0.70;;;;;;;5.41;100.00;103066.95;104874;1322;60624;-82
2021/12/18 04:49:22;;;;;;;1.80;0.70;;;;;;;5.40;100.00;103065.06;105016;1314;73383;-82
2021/12/18 04:51:49;;;;;;;1.90;0.90;;;;;;;5.39;100.00;103060.89;103569;1331;71536;-82
2021/12/18 04:54:16;;;;;;;2.20;0.80;;;;;;;5.39;100.00;103064.08;104739;1322;75234;-81
2021/12/18 04:56:42;;;;;;;4.00;0.90;;;;;;;5.40;100.00;103062.95;104699;1321;57393;-81
2021/12/18 04:59:09;;;;;;;3.00;1.30;;;;;;;5.40;100.00;103059.80;104386;1322;60609;-82
2021/12/18 05:01:38;;;;;;;3.80;0.60;;;;;;;5.40;100.00;103058.02;103743;1324;73515;-81
2021/12/18 05:04:09;;;;;;;3.40;1.20;;;;;;;5.41;100.00;103062.34;104804;1326;71047;-81
2021/12/18 05:06:40;;;;;;;3.20;1.20;;;;;;;5.40;100.00;103057.50;104686;1323;74013;-81
2021/12/18 05:09:07;;;;;;;2.90;1.30;;;;;;;5.39;100.00;103055.82;104773;1328;62316;-82
2021/12/18 05:14:08;;;;;;;3.70;1.80;;;;;;;5.37;100.00;103058.17;104759;1311;74290;-81
2021/12/18 05:21:29;;;;;;;4.60;1.90;;;;;;;5.37;100.00;103062.05;104775;1311;57784;-79
2021/12/18 05:23:56;;;;;;;2.70;1.40;;;;;;;5.38;100.00;103061.69;104538;1325;61740;-80
2021/12/18 05:26:23;;;;;;;5.00;2.40;;;;;;;5.38;100.00;103060.63;104858;1321;74735;-79
2021/12/18 05:28:50;;;;;;;5.90;2.50;;;;;;;5.38;100.00;103064.14;104223;1322;72523;-80
2021/12/18 05:31:17;;;;;;;8.90;3.10;;;;;;;5.40;100.00;103065.95;104771;1313;57852;-78
2021/12/18 05:33:46;;;;;;;6.60;3.20;;;;;;;5.40;100.00;103067.31;104742;1312;65497;-79
2021/12/18 05:39:03;;;;;;;4.50;1.90;;;;;;;5.45;100.00;103068.45;104515;1312;74082;-79
2021/12/18 05:41:30;;;;;;;5.60;3.00;;;;;;;5.47;100.00;103066.97;104024;1324;72451;-80
2021/12/18 05:43:57;;;;;;;6.90;2.80;;;;;;;5.47;100.00;103064.66;104682;1330;74272;-80
2021/12/18 05:46:24;;;;;;;9.00;2.40;;;;;;;5.48;100.00;103064.27;104447;1325;63264;-79
2021/12/18 05:48:51;;;;;;;5.60;3.20;;;;;;;5.48;100.00;103064.77;104659;1325;60579;-79
2021/12/18 05:51:21;;;;;;;9.40;3.80;;;;;;;5.49;100.00;103061.24;104179;1324;74409;-79
2021/12/18 05:53:48;;;;;;;7.80;3.70;;;;;;;5.50;100.00;103064.15;104501;1325;72634;-79
2021/12/18 05:56:15;;;;;;;10.40;3.70;;;;;;;5.51;100.00;103058.13;104622;1324;72581;-79
2021/12/18 05:58:43;;;;;;;10.50;4.10;;;;;;;5.52;100.00;103064.75;104664;1325;63076;-79
2021/12/18 06:01:12;;;;;;;8.70;3.90;;;;;;;5.52;100.00;103065.27;103887;1328;60560;-79
2021/12/18 06:03:40;;;;;;;8.50;4.30;;;;;;;5.53;100.00;103058.56;104391;1331;74490;-79
2021/12/18 06:06:07;;;;;;;8.90;4.20;;;;;;;5.55;100.00;103058.29;104341;1329;72438;-79
2021/12/18 06:08:35;;;;;;;10.10;3.60;;;;;;;5.57;100.00;103054.83;104453;1325;73940;-80
2021/12/18 06:11:08;;;;;;;8.90;4.00;;;;;;;5.56;100.00;103058.55;104266;1327;62043;-79
2021/12/18 06:13:35;;;;;;;6.90;3.20;;;;;;;5.55;100.00;103061.09;104488;1330;60324;-79
2021/12/18 06:16:05;;;;;;;8.10;3.60;;;;;;;5.53;100.00;103056.98;104631;1327;74314;-78
2021/12/18 06:18:40;;;;;;;6.00;2.60;;;;;;;5.53;100.00;103059.06;104615;1324;72441;-79
2021/12/18 06:21:09;;;;;;;;;;;;;;;5.54;100.00;103056.08;104660;1324;72636;-79
2021/12/18 06:23:35;;;;;;;7.70;3.50;;;;;;;5.53;100.00;103059.94;104586;1325;62295;-79
2021/12/18 06:26:02;;;;;;;13.20;4.20;;;;;;;5.53;100.00;103061.73;104370;1331;60713;-79
2021/12/18 06:28:29;;;;;;;8.70;3.50;;;;;;;5.53;100.00;103061.75;103711;1330;74189;-79
2021/12/18 06:30:55;;;;;;;10.50;4.20;;;;;;;5.52;100.00;103061.27;104415;1311;58363;-78
2021/12/18 06:33:22;;;;;;;7.90;3.70;;;;;;;5.53;100.00;103061.92;104430;1324;72902;-80
2021/12/18 06:35:49;;;;;;;7.50;3.30;;;;;;;5.54;100.00;103061.83;104471;1324;62365;-79
2021/12/18 06:38:16;;;;;;;8.10;4.20;;;;;;;5.56;100.00;103061.04;103933;1327;60646;-79
2021/12/18 06:40:43;;;;;;;7.70;3.10;;;;;;;5.58;100.00;103060.75;103768;1331;75292;-79
2021/12/18 06:43:09;;;;;;;7.10;2.90;;;;;;;5.59;100.00;103056.10;104053;1328;71592;-80
2021/12/18 06:45:36;;;;;;;9.10;3.30;;;;;;;5.61;100.00;103055.86;104329;1327;74210;-79
2021/12/18 06:48:03;;;;;;;8.80;3.40;;;;;;;5.59;100.00;103058.76;103745;1328;62775;-79
2021/12/18 06:50:30;;;;;;;6.10;2.80;;;;;;;5.59;100.00;103060.34;104268;1324;60399;-79
2021/12/18 06:52:56;;;;;;;6.10;2.30;;;;;;;5.58;100.00;103060.89;104469;1327;73593;-80
2021/12/18 06:55:24;;;;;;;5.90;2.90;;;;;;;5.57;100.00;103068.16;103875;1330;72517;-79
2021/12/18 06:57:51;;;;;;;6.10;1.90;;;;;;;5.56;100.00;103068.92;103437;1334;74167;-80
2021/12/18 07:00:20;;;;;;;3.80;1.40;;;;;;;5.56;100.00;103071.20;103628;1332;62994;-81
2021/12/18 07:02:47;;;;;;;3.60;1.60;;;;;;;5.56;100.00;103067.54;104340;1328;60582;-79
2021/12/18 07:05:15;;;;;;;3.30;1.70;;;;;;;5.57;100.00;103072.56;104047;1331;74887;-79
2021/12/18 07:07:42;;;;;;;4.00;1.70;;;;;;;5.55;100.00;103073.20;104353;1327;71797;-78
2021/12/18 07:10:10;;;;;;;4.00;1.80;;;;;;;5.54;100.00;103065.69;103631;1332;73980;-79
2021/12/18 07:12:37;;;;;;;5.00;2.10;;;;;;;5.55;100.00;103068.98;104457;1324;62232;-79
2021/12/18 07:15:06;;;;;;;4.20;1.40;;;;;;;5.54;100.00;103064.27;104443;1325;60302;-78
2021/12/18 07:17:33;;;;;;;4.70;1.70;;;;;;;5.54;100.00;103066.06;104581;1312;75311;-78
2021/12/18 07:20:01;;;;;;;4.50;2.10;;;;;;;5.54;100.00;103065.91;104849;1322;70460;-79
2021/12/18 07:22:28;;;;;;;4.80;1.90;;;;;;;5.54;100.00;103063.42;104285;1322;72951;-79
2021/12/18 07:24:54;;;;;;;5.10;2.30;;;;;;;5.56;100.00;103066.67;104867;1322;61933;-79
2021/12/18 07:27:25;;;;;;;4.70;1.70;;;;;;;5.57;100.00;103069.76;104709;1322;58288;-79
2021/12/18 07:29:51;;;;;;;4.20;1.70;;;;;;;5.59;100.00;103070.70;104336;1326;75218;-80
2021/12/18 07:32:18;;;;;;;6.10;2.60;;;;;;;5.60;100.00;103071.70;104676;1322;58370;-79
2021/12/18 07:34:52;;;;;;;4.20;1.70;;;;;;;5.61;100.00;103075.34;104822;1322;73958;-79
2021/12/18 07:37:18;;;;;;;3.50;1.30;;;;;;;5.61;100.00;103070.02;104791;1322;61590;-79
2021/12/18 07:39:45;;;;;;;7.30;2.60;;;;;;;5.63;100.00;103070.33;104653;1326;59786;-79
2021/12/18 07:42:11;;;;;;;9.70;3.20;;;;;;;5.65;100.00;103068.24;104164;1322;58269;-79
2021/12/18 07:44:40;;;;;;;6.90;2.80;;;;;;;5.67;100.00;103068.34;104570;1328;58365;-81
2021/12/18 07:47:12;;;;;;;7.40;3.30;;;;;;;5.67;100.00;103067.77;104804;1322;72964;-80
2021/12/18 07:49:39;;;;;;;5.40;2.20;;;;;;;5.69;100.00;103070.11;104657;1322;62589;-80
2021/12/18 07:52:06;;;;;;;5.80;2.60;;;;;;;5.69;100.00;103066.41;104817;1322;61622;-81
2021/12/18 07:54:34;;;;;;;4.70;2.40;;;;;;;5.70;100.00;103066.20;103569;1331;74109;-82
2021/12/18 07:57:00;;;;;;;4.40;2.00;;;;;;;5.71;100.00;103067.55;104817;1322;70418;-81
2021/12/18 07:59:27;;;;;;;5.50;2.40;;;;;;;5.71;100.00;103065.80;103623;1331;57799;-82
2021/12/18 08:01:53;;;;;;;7.50;2.40;;;;;;;5.71;100.00;103070.02;104817;1322;58327;-80
2021/12/18 08:04:20;;;;;;;6.30;2.30;;;;;;;5.71;100.00;103069.63;104839;1322;60693;-82
2021/12/18 08:06:47;;;;;;;6.40;2.30;;;;;;;5.71;100.00;103069.48;104869;1322;75128;-81
2021/12/18 08:09:13;;;;;;;6.50;3.00;;;;;;;5.72;100.00;103066.45;104801;1321;72461;-81
2021/12/18 08:11:40;;;;;;;6.50;2.20;;;;;;;5.76;100.00;103070.49;104820;1330;73144;-81
2021/12/18 08:14:09;;;;;;;5.80;2.60;;;;;;;5.77;100.00;103067.45;104617;1325;58308;-82
2021/12/18 08:16:35;;;;;;;4.10;1.60;;;;;;;5.80;100.00;103068.33;104648;1324;61596;-81
2021/12/18 08:19:02;;;;;;;6.50;2.50;;;;;;;5.81;100.00;103066.14;104859;1326;75163;-81
2021/12/18 08:21:29;;;;;;;6.60;2.70;;;;;;;5.83;100.00;103067.48;104666;1328;70484;-80
2021/12/18 08:23:55;;;;;;;6.10;3.50;;;;;;;5.84;100.00;103064.41;104367;1325;73959;-80
2021/12/18 08:26:24;;;;;;;6.10;2.60;;;;;;;5.84;100.00;103066.66;104624;1324;62317;-80
2021/12/18 08:28:51;;;;;;;6.40;3.10;;;;;;;5.86;100.00;103066.23;103887;1322;61615;-79
2021/12/18 08:31:17;;;;;;;7.10;3.20;;;;;;;5.86;100.00;103069.91;104685;1325;58294;-79
2021/12/18 08:33:44;;;;;;;6.30;3.20;;;;;;;5.86;100.00;103068.85;104773;1325;71510;-81
2021/12/18 08:36:11;;;;;;;6.00;3.20;;;;;;;5.88;100.00;103070.52;104832;1323;74139;-81
2021/12/18 08:38:37;;;;;;;5.10;2.10;;;;;;;5.89;100.00;103075.52;103894;1322;62239;-79
2021/12/18 08:41:04;;;;;;;6.60;3.30;;;;;;;5.90;100.00;103068.80;104367;1329;57625;-80
2021/12/18 08:43:30;;;;;;;7.10;3.50;;;;;;;5.91;100.00;103068.36;103903;1329;75199;-80
2021/12/18 08:45:57;;;;;;;6.50;2.40;;;;;;;5.91;100.00;103065.77;104830;1324;58531;-80
2021/12/18 08:48:23;;;;;;;9.00;3.20;;;;;;;5.91;100.00;103062.27;104798;1322;58529;-81
2021/12/18 08:50:50;;;;;;;5.30;2.70;;;;;;;5.90;100.00;103064.56;104806;1322;62041;-80
2021/12/18 08:53:16;;;;;;;5.80;2.90;;;;;;;5.90;100.00;103057.73;104212;1327;58278;-80
2021/12/18 08:55:43;;;;;;;4.60;2.40;;;;;;;5.91;100.00;103055.90;104139;1322;74242;-79
2021/12/18 08:58:10;;;;;;;5.90;2.50;;;;;;;5.93;100.00;103053.52;104818;1323;71437;-78
2021/12/18 09:00:37;;;;;;;5.90;2.60;;;;;;;5.93;100.00;103058.29;104830;1324;74010;-79
2021/12/18 09:03:04;;;;;;;4.90;2.10;;;;;;;5.96;100.00;103056.58;104641;1324;62500;-80
2021/12/18 09:05:31;;;;;;;5.70;2.40;;;;;;;5.99;100.00;103058.66;104825;1324;61605;-79
2021/12/18 09:07:58;;;;;;;4.50;2.00;;;;;;;6.00;100.00;103059.13;104722;1325;74101;-78
2021/12/18 09:10:25;;;;;;;4.20;1.90;;;;;;;6.01;100.00;103056.60;104838;1322;72459;-79
2021/12/18 09:12:53;;;;;;;5.10;2.40;;;;;;;6.02;100.00;103055.70;104666;1319;72804;-82
2021/12/18 09:15:20;;;;;;;6.40;2.20;;;;;;;6.04;100.00;103055.42;104669;1328;61955;-82
2021/12/18 09:17:49;;;;;;;3.80;1.90;;;;;;;6.07;100.00;103054.02;103641;1329;60557;-79
2021/12/18 09:20:16;;;;;;;5.90;2.00;;;;;;;6.10;100.00;103053.51;104853;1324;75138;-80
2021/12/18 09:22:43;;;;;;;4.30;1.30;;;;;;;6.13;100.00;103051.55;104708;1322;72539;-78
2021/12/18 09:25:09;;;;;;;2.00;1.00;;;;;;;6.16;100.00;103052.10;104652;1325;58314;-78
2021/12/18 09:27:37;;;;;;;2.70;1.50;;;;;;;6.17;100.00;103051.36;104795;1322;61924;-77
2021/12/18 09:30:10;;;;;;;2.70;1.00;;;;;;;6.16;100.00;103048.95;104829;1327;60635;-80
2021/12/18 09:32:37;;;;;;;3.30;1.10;;;;;;;6.16;100.00;103051.38;104016;1322;75229;-80
2021/12/18 09:35:06;;;;;;;3.60;1.50;;;;;;;6.16;100.00;103046.84;104653;1325;71391;-78
2021/12/18 09:37:33;;;;;;;3.40;1.00;;;;;;;6.15;100.00;103051.30;104238;1322;72856;-80
2021/12/18 09:39:59;;;;;;;3.00;1.40;;;;;;;6.15;100.00;103051.30;103771;1329;61913;-80
2021/12/18 09:42:26;;;;;;;2.10;1.10;;;;;;;6.14;100.00;103052.05;104615;1325;60626;-81
2021/12/18 09:44:53;;;;;;;3.20;1.00;;;;;;;6.13;100.00;103049.46;104859;1322;74060;-80
2021/12/18 09:47:20;;;;;;;3.10;1.30;;;;;;;6.11;100.00;103045.14;104832;1326;72755;-80
2021/12/18 09:49:48;;;;;;;4.80;1.80;;;;;;;6.13;100.00;103040.51;104833;1325;73077;-76
2021/12/18 09:52:15;;;;;;;3.00;1.30;;;;;;;6.15;100.00;103035.48;104631;1325;63975;-80
2021/12/18 09:54:42;;;;;;;4.80;1.30;;;;;;;6.17;100.00;103034.85;104292;1322;60566;-79
2021/12/18 09:57:14;;;;;;;2.70;1.20;;;;;;;6.16;100.00;103033.13;104784;1328;72964;-78
2021/12/18 09:59:41;;;;;;;4.60;1.50;;;;;;;6.14;100.00;103029.52;104175;1326;588474;-80
2021/12/18 10:02:08;;;;;;;4.50;2.20;;;;;;;6.15;100.00;103028.83;104818;1322;73974;-78
2021/12/18 10:04:37;;;;;;;3.20;1.40;;;;;;;6.13;100.00;103024.31;104803;1326;63791;-79
2021/12/18 10:07:25;;;;;;;3.00;1.20;;;;;;;6.13;100.00;103024.15;104701;1323;60791;-78
2021/12/18 10:09:57;;;;;;;4.30;1.40;;;;;;;6.15;100.00;103023.17;104198;1321;75174;-80
2021/12/18 10:12:25;;;;;;;2.10;1.20;;;;;;;6.16;100.00;103023.12;104826;1322;72384;-83
2021/12/18 10:15:04;;;;;;;3.60;1.60;;;;;;;6.15;100.00;103018.08;104843;1322;72881;-82
2021/12/18 10:17:35;;;;;;;5.00;1.70;;;;;;;6.14;100.00;103013.21;104353;1325;62416;-79
2021/12/18 10:20:10;;;;;;;4.50;2.00;;;;;;;6.15;100.00;103008.40;104679;1322;60702;-80
2021/12/18 10:22:48;;;;;;;5.70;2.20;;;;;;;6.17;100.00;103004.41;104580;1322;74664;-79
2021/12/18 10:25:38;;;;;;;4.30;1.70;;;;;;;6.17;100.00;102998.47;104818;1325;71421;-81
2021/12/18 10:28:12;;;;;;;4.30;2.10;;;;;;;6.16;100.00;103005.90;104206;1325;72973;-84
2021/12/18 10:30:58;;;;;;;3.70;1.50;;;;;;;6.13;100.00;103002.34;104664;1323;63517;-84
2021/12/18 10:33:29;;;;;;;3.90;1.70;;;;;;;6.12;100.00;102998.35;104810;1322;60580;-81
2021/12/18 10:35:58;;;;;;;4.40;2.30;;;;;;;6.10;100.00;102998.64;104643;1325;73932;-83
2021/12/18 10:38:43;;;;;;;4.70;1.40;;;;;;;6.08;100.00;102990.89;104813;1326;71454;-81
2021/12/18 10:44:00;;;;;;;5.00;1.40;;;;;;;6.10;100.00;102983.20;105379;1311;60519;-80
2021/12/18 10:46:29;;;;;;;2.50;1.10;;;;;;;6.11;100.00;102984.03;104952;1322;60918;-82
2021/12/18 10:48:57;;;;;;;4.20;1.70;;;;;;;6.08;100.00;102984.53;104960;1320;75208;-81
2021/12/18 10:51:30;;;;;;;3.50;1.80;;;;;;;6.08;100.00;102984.57;105000;1326;71541;-82
2021/12/18 10:56:48;;;;;;;5.00;2.00;;;;;;;6.10;100.00;102968.79;104610;1323;60795;-77
2021/12/18 11:00:05;;;;;;;;;;;;;;;;;;;;;
2021/12/18 11:03:17;;;;;;;;;;;;;;;;;;;;;
2021/12/18 11:06:03;;;;;;;4.70;1.40;;;;;;;6.11;100.00;102964.54;103313;1337;72769;-76
2021/12/18 11:09:34;;;;;;;3.20;1.70;;;;;;;6.12;100.00;102959.89;104066;1322;74157;-77
2021/12/18 11:15:16;;;;;;;3.40;1.50;;;;;;;6.15;100.00;102949.91;104775;1322;60614;-77
2021/12/18 11:18:23;;;;;;;;;;;;;;;;;;;;;
2021/12/18 11:20:52;;;;;;;4.70;2.30;;;;;;;6.21;100.00;102948.13;104755;1322;72911;-76
2021/12/18 11:23:31;;;;;;;3.70;1.90;;;;;;;6.24;100.00;102942.67;104782;1324;71531;-77
2021/12/18 11:25:58;;;;;;;5.20;1.90;;;;;;;6.25;100.00;102942.80;103641;1328;61479;-77
2021/12/18 11:28:48;;;;;;;5.20;2.30;;;;;;;6.25;100.00;102939.48;104486;1324;61028;-78
2021/12/18 11:31:20;;;;;;;4.30;1.50;;;;;;;6.22;100.00;102942.82;104118;1329;75276;-77
2021/12/18 11:33:50;;;;;;;6.00;2.10;;;;;;;6.21;100.00;102932.67;104370;1328;72972;-77
2021/12/18 11:40:34;;;;;;;4.50;2.10;;;;;;;6.15;100.00;102932.34;104609;1325;62989;-78
2021/12/18 11:43:53;;;;;;;;;;;;;;;;;;;;;
2021/12/18 11:46:48;;;;;;;3.40;1.30;;;;;;;6.12;100.00;102918.08;104465;1324;72953;-77
2021/12/18 11:49:33;;;;;;;;;;;;;;;;;;;;;
2021/12/18 11:52:06;;;;;;;5.20;2.60;;;;;;;6.12;100.00;102916.16;103549;1330;74182;-77
2021/12/18 11:55:00;;;;;;;6.00;2.70;;;;;;;6.12;100.00;102916.52;104666;1325;62030;-78
2021/12/18 11:58:10;;;;;;;6.00;2.40;;;;;;;6.10;100.00;102912.05;104495;1325;60579;-77
2021/12/18 12:01:15;;;;;;;;;;;;;;;;;;;;;
2021/12/18 12:04:44;;;;;;;5.10;2.50;;;;;;;6.08;100.00;102913.42;104661;1324;71672;-78
2021/12/18 12:07:54;;;;;;;5.50;2.00;;;;;;;6.05;100.00;102914.83;104627;1325;73986;-78
2021/12/18 12:10:49;;;;;;;4.20;1.70;;;;;;;6.03;100.00;102909.64;103893;1330;62246;-77
2021/12/18 12:14:19;;;;;;;3.60;1.60;;;;;;;6.01;100.00;102908.02;104273;1325;62039;-78
2021/12/18 12:16:46;;;;;;;5.80;2.60;;;;;;;6.00;100.00;102904.01;104510;1323;74170;-78
2021/12/18 12:19:45;;;;;;;4.70;2.30;;;;;;;6.00;100.00;102905.61;104534;1320;71839;-78
2021/12/18 12:23:01;;;;;;;5.60;3.10;;;;;;;6.01;100.00;102898.72;104505;1325;74055;-77
2021/12/18 12:26:03;;;;;;;5.90;2.70;;;;;;;6.02;100.00;102896.17;104216;1328;62342;-77
2021/12/18 12:28:30;;;;;;;7.30;3.60;;;;;;;6.04;100.00;102896.08;104515;1325;60882;-77
2021/12/18 12:31:41;;;;;;;6.20;2.60;;;;;;;6.06;100.00;102899.80;104671;1325;75383;-78
2021/12/18 12:35:00;;;;;;;;;;;;;;;;;;;;;
2021/12/18 12:38:24;;;;;;;8.20;3.50;;;;;;;6.17;100.00;102885.83;103602;1335;74066;-78
2021/12/18 12:41:14;;;;;;;4.30;2.00;;;;;;;6.19;100.00;102883.43;104517;1325;63602;-78
2021/12/18 12:45:13;;;;;;;5.70;2.80;;;;;;;6.19;100.00;102876.77;104687;1322;60395;-78
2021/12/18 12:48:02;;;;;;;3.90;2.00;;;;;;;6.16;100.00;102874.83;103922;1331;75224;-77
2021/12/18 12:51:29;;;;;;;5.20;2.60;;;;;;;6.16;100.00;102871.85;104319;1324;72701;-77
2021/12/18 12:54:45;;;;;;;;;;;;;;;;;;;;;
2021/12/18 12:57:27;;;;;;;4.50;2.10;;;;;;;6.17;100.00;102871.08;104359;1325;62463;-77
2021/12/18 13:00:15;;;;;;;5.10;2.10;;;;;;;6.17;100.00;102866.50;104495;1324;61874;-77
2021/12/18 13:03:35;;;;;;;4.30;2.20;;;;;;;6.20;100.00;102860.54;104491;1323;74152;-76
2021/12/18 13:06:31;;;;;;;4.80;2.60;;;;;;;6.23;100.00;102865.63;104311;1330;72090;-76
2021/12/18 13:09:13;;;;;;;5.20;2.30;;;;;;;6.24;100.00;102861.48;104445;1324;73632;-76
2021/12/18 13:12:01;;;;;;;4.60;2.30;;;;;;;6.24;100.00;102866.07;103666;1328;62296;-77
2021/12/18 13:15:25;;;;;;;;;;;;;;;;;;;;;
2021/12/18 13:19:12;;;;;;;4.00;2.10;;;;;;;6.26;100.00;102862.23;104293;1325;73882;-76
2021/12/18 13:22:21;;;;;;;4.70;2.50;;;;;;;6.27;100.00;102861.48;104002;1321;71440;-77
2021/12/18 13:25:28;;;;;;;4.40;2.80;;;;;;;6.26;100.00;102860.17;103596;1331;72909;-76
2021/12/18 13:28:07;;;;;;;4.60;2.70;;;;;;;6.24;100.00;102854.64;104223;1327;62398;-76
2021/12/18 13:30:35;;;;;;;3.80;2.70;;;;;;;6.25;100.00;102850.90;104693;1325;61383;-77